createdAt,value
2016-02-24T00:00:57.333Z,1009.31
2016-02-24T00:01:57.303Z,1009.33
2016-02-24T00:02:57.291Z,1009.32
2016-02-24T00:03:57.278Z,1009.33
2016-02-24T00:04:57.265Z,1009.32
2016-02-24T00:05:57.252Z,1009.34
2016-02-24T00:06:57.239Z,1009.35
2016-02-24T00:07:57.227Z,1009.34
2016-02-24T00:08:57.197Z,1009.33
2016-02-24T00:09:57.185Z,1009.32
2016-02-24T00:10:57.187Z,1009.35
2016-02-24T00:11:57.143Z,1009.39
2016-02-24T00:12:57.145Z,1009.42
2016-02-24T00:13:57.118Z,1009.43
2016-02-24T00:14:57.104Z,1009.46
2016-02-24T00:15:57.075Z,1009.44
2016-02-24T00:16:57.062Z,1009.49
2016-02-24T00:17:57.049Z,1009.51
2016-02-24T00:18:57.036Z,1009.57
2016-02-24T00:19:57.024Z,1009.57
2016-02-24T00:20:57.011Z,1009.55
2016-02-24T00:21:56.982Z,1009.57
2016-02-24T00:22:56.969Z,1009.58
2016-02-24T00:23:56.957Z,1009.57
2016-02-24T00:24:56.943Z,1009.58
2016-02-24T00:25:56.915Z,1009.61
2016-02-24T00:26:56.918Z,1009.62
2016-02-24T00:27:56.905Z,1009.6
2016-02-24T00:28:56.876Z,1009.61
2016-02-24T00:29:56.864Z,1009.61
2016-02-24T00:30:56.866Z,1009.61
2016-02-24T00:31:56.822Z,1009.57
2016-02-24T00:32:56.809Z,1009.58
2016-02-24T00:33:56.796Z,1009.57
2016-02-24T00:34:56.782Z,1009.61
2016-02-24T00:35:56.760Z,1009.61
2016-02-24T00:36:56.746Z,1009.65
2016-02-24T00:37:56.749Z,1009.7
2016-02-24T00:38:56.720Z,1009.66
2016-02-24T00:39:56.691Z,1009.7
2016-02-24T00:40:56.679Z,1009.7
2016-02-24T00:41:56.681Z,1009.68
2016-02-24T00:42:56.653Z,1009.71
2016-02-24T00:43:56.640Z,1009.67
2016-02-24T00:44:56.627Z,1009.72
2016-02-24T00:45:56.599Z,1009.7
2016-02-24T00:46:56.585Z,1009.71
2016-02-24T00:47:56.573Z,1009.67
2016-02-24T00:48:56.560Z,1009.68
2016-02-24T00:49:56.531Z,1009.71
2016-02-24T00:50:56.518Z,1009.72
2016-02-24T00:51:56.505Z,1009.72
2016-02-24T00:52:56.493Z,1009.72
2016-02-24T00:53:56.464Z,1009.71
2016-02-24T00:54:56.451Z,1009.72
2016-02-24T00:55:56.438Z,1009.7
2016-02-24T00:56:56.425Z,1009.74
2016-02-24T00:57:56.411Z,1009.73
2016-02-24T00:58:56.400Z,1009.7
2016-02-24T00:59:56.370Z,1009.69
2016-02-24T01:00:56.357Z,1009.71
2016-02-24T01:01:56.345Z,1009.71
2016-02-24T01:02:56.332Z,1009.74
2016-02-24T01:03:56.303Z,1009.75
2016-02-24T01:04:56.291Z,1009.76
2016-02-24T01:05:56.278Z,1009.8
2016-02-24T01:06:56.252Z,1009.79
2016-02-24T01:07:56.254Z,1009.79
2016-02-24T01:08:56.241Z,1009.79
2016-02-24T01:09:56.212Z,1009.79
2016-02-24T01:10:56.199Z,1009.8
2016-02-24T01:11:56.187Z,1009.82
2016-02-24T01:12:56.157Z,1009.81
2016-02-24T01:13:56.145Z,1009.84
2016-02-24T01:14:56.131Z,1009.84
2016-02-24T01:15:56.119Z,1009.85
2016-02-24T01:16:56.090Z,1009.83
2016-02-24T01:17:56.077Z,1009.86
2016-02-24T01:18:56.064Z,1009.87
2016-02-24T01:19:56.051Z,1009.84
2016-02-24T01:20:56.023Z,1009.85
2016-02-24T01:21:56.025Z,1009.87
2016-02-24T01:22:56.012Z,1009.9
2016-02-24T01:23:55.984Z,1009.92
2016-02-24T01:24:55.972Z,1009.95
2016-02-24T01:25:55.958Z,1009.97
2016-02-24T01:26:55.930Z,1009.94
2016-02-24T01:27:55.916Z,1009.95
2016-02-24T01:28:55.904Z,1009.94
2016-02-24T01:29:55.891Z,1009.95
2016-02-24T01:30:55.878Z,1009.97
2016-02-24T01:31:55.849Z,1009.99
2016-02-24T01:32:55.836Z,1009.95
2016-02-24T01:33:55.824Z,1009.94
2016-02-24T01:34:55.811Z,1009.98
2016-02-24T01:35:55.782Z,1009.96
2016-02-24T01:36:55.769Z,1010.01
2016-02-24T01:37:55.756Z,1009.98
2016-02-24T01:38:55.744Z,1010
2016-02-24T01:39:55.715Z,1010.03
2016-02-24T01:40:55.718Z,1010.01
2016-02-24T01:41:55.688Z,1010.04
2016-02-24T01:42:55.676Z,1010.05
2016-02-24T01:43:55.662Z,1010.01
2016-02-24T01:44:55.635Z,1010.01
2016-02-24T01:45:55.637Z,1010
2016-02-24T01:46:55.623Z,1009.96
2016-02-24T01:47:55.595Z,1009.97
2016-02-24T01:48:55.582Z,1009.95
2016-02-24T01:49:55.570Z,1009.96
2016-02-24T01:50:55.556Z,1009.93
2016-02-24T01:51:55.528Z,1009.94
2016-02-24T01:52:55.515Z,1010.01
2016-02-24T01:53:55.503Z,1010
2016-02-24T01:54:55.474Z,1009.97
2016-02-24T01:55:55.461Z,1009.98
2016-02-24T01:56:55.447Z,1009.96
2016-02-24T01:57:55.436Z,1009.97
2016-02-24T01:58:55.406Z,1009.95
2016-02-24T01:59:55.394Z,1009.97
2016-02-24T02:00:55.381Z,1009.95
2016-02-24T02:01:55.352Z,1009.95
2016-02-24T02:02:55.339Z,1009.95
2016-02-24T02:03:55.341Z,1009.96
2016-02-24T02:04:55.313Z,1009.92
2016-02-24T02:05:55.299Z,1009.96
2016-02-24T02:06:55.287Z,1009.94
2016-02-24T02:07:55.258Z,1009.96
2016-02-24T02:08:55.246Z,1009.95
2016-02-24T02:09:55.233Z,1009.93
2016-02-24T02:10:55.220Z,1009.94
2016-02-24T02:11:55.191Z,1009.93
2016-02-24T02:12:55.179Z,1009.9
2016-02-24T02:13:55.166Z,1009.87
2016-02-24T02:14:55.152Z,1009.87
2016-02-24T02:15:55.123Z,1009.89
2016-02-24T02:16:55.112Z,1009.89
2016-02-24T02:17:55.114Z,1009.88
2016-02-24T02:18:55.070Z,1009.91
2016-02-24T02:19:55.057Z,1009.91
2016-02-24T02:20:55.043Z,1009.88
2016-02-24T02:21:55.031Z,1009.87
2016-02-24T02:22:55.003Z,1009.86
2016-02-24T02:23:54.989Z,1009.85
2016-02-24T02:24:54.976Z,1009.82
2016-02-24T02:25:54.963Z,1009.87
2016-02-24T02:26:54.951Z,1009.84
2016-02-24T02:27:54.922Z,1009.85
2016-02-24T02:28:54.909Z,1009.85
2016-02-24T02:29:54.897Z,1009.89
2016-02-24T02:30:54.868Z,1009.88
2016-02-24T02:31:54.855Z,1009.88
2016-02-24T02:32:54.842Z,1009.91
2016-02-24T02:33:54.829Z,1009.9
2016-02-24T02:34:54.800Z,1009.89
2016-02-24T02:35:54.788Z,1009.89
2016-02-24T02:36:54.774Z,1009.87
2016-02-24T02:37:54.746Z,1009.89
2016-02-24T02:38:54.732Z,1009.91
2016-02-24T02:39:54.719Z,1009.87
2016-02-24T02:40:54.707Z,1009.87
2016-02-24T02:41:54.679Z,1009.87
2016-02-24T02:42:54.665Z,1009.92
2016-02-24T02:43:54.652Z,1009.87
2016-02-24T02:44:54.640Z,1009.9
2016-02-24T02:45:54.610Z,1009.91
2016-02-24T02:46:54.629Z,1009.88
2016-02-24T02:47:54.585Z,1009.91
2016-02-24T02:48:54.573Z,1009.92
2016-02-24T02:49:54.543Z,1009.89
2016-02-24T02:50:54.531Z,1009.9
2016-02-24T02:51:54.533Z,1009.89
2016-02-24T02:52:54.505Z,1009.93
2016-02-24T02:53:54.476Z,1009.91
2016-02-24T02:54:54.463Z,1009.91
2016-02-24T02:55:54.451Z,1009.91
2016-02-24T02:56:54.422Z,1009.88
2016-02-24T02:57:54.409Z,1009.88
2016-02-24T02:58:54.396Z,1009.93
2016-02-24T02:59:54.383Z,1009.91
2016-02-24T03:00:54.354Z,1009.96
2016-02-24T03:01:54.341Z,1009.93
2016-02-24T03:02:54.328Z,1009.91
2016-02-24T03:03:54.316Z,1009.9
2016-02-24T03:04:54.286Z,1009.9
2016-02-24T03:05:54.274Z,1009.94
2016-02-24T03:06:54.261Z,1009.94
2016-02-24T03:07:54.232Z,1009.94
2016-02-24T03:08:54.220Z,1009.91
2016-02-24T03:09:54.207Z,1009.93
2016-02-24T03:10:54.194Z,1009.89
2016-02-24T03:11:54.181Z,1009.91
2016-02-24T03:12:54.152Z,1009.91
2016-02-24T03:13:54.140Z,1009.91
2016-02-24T03:14:54.127Z,1009.89
2016-02-24T03:15:54.113Z,1009.89
2016-02-24T03:16:54.086Z,1009.86
2016-02-24T03:17:54.089Z,1009.94
2016-02-24T03:18:54.061Z,1009.86
2016-02-24T03:19:54.032Z,1009.91
2016-02-24T03:20:54.018Z,1009.92
2016-02-24T03:21:54.006Z,1009.89
2016-02-24T03:22:53.993Z,1009.91
2016-02-24T03:23:53.964Z,1009.88
2016-02-24T03:24:53.951Z,1009.88
2016-02-24T03:25:53.938Z,1009.92
2016-02-24T03:26:53.925Z,1009.93
2016-02-24T03:27:53.913Z,1009.91
2016-02-24T03:28:53.884Z,1009.89
2016-02-24T03:29:53.871Z,1009.88
2016-02-24T03:30:53.857Z,1009.93
2016-02-24T03:31:53.845Z,1009.94
2016-02-24T03:32:53.817Z,1009.93
2016-02-24T03:33:53.803Z,1009.9
2016-02-24T03:34:53.790Z,1009.93
2016-02-24T03:35:53.778Z,1009.93
2016-02-24T03:36:53.748Z,1009.94
2016-02-24T03:37:53.736Z,1009.95
2016-02-24T03:38:53.723Z,1009.94
2016-02-24T03:39:53.711Z,1009.97
2016-02-24T03:40:53.679Z,1009.96
2016-02-24T03:41:53.655Z,1009.97
2016-02-24T03:42:53.629Z,1009.91
2016-02-24T03:43:53.603Z,1009.93
2016-02-24T03:44:53.563Z,1009.92
2016-02-24T03:45:53.539Z,1009.94
2016-02-24T03:46:53.523Z,1009.9
2016-02-24T03:47:53.505Z,1009.96
2016-02-24T03:48:53.472Z,1009.97
2016-02-24T03:49:53.455Z,1009.93
2016-02-24T03:50:53.438Z,1009.92
2016-02-24T03:51:53.423Z,1009.93
2016-02-24T03:52:53.394Z,1009.91
2016-02-24T03:53:53.378Z,1009.93
2016-02-24T03:54:53.365Z,1009.9
2016-02-24T03:55:53.350Z,1009.9
2016-02-24T03:56:53.321Z,1009.86
2016-02-24T03:57:53.308Z,1009.86
2016-02-24T03:58:53.294Z,1009.9
2016-02-24T03:59:53.264Z,1009.9
2016-02-24T04:00:53.266Z,1009.89
2016-02-24T04:01:53.238Z,1009.89
2016-02-24T04:02:53.224Z,1009.88
2016-02-24T04:03:53.212Z,1009.87
2016-02-24T04:04:53.187Z,1009.9
2016-02-24T04:05:53.176Z,1009.86
2016-02-24T04:06:53.162Z,1009.87
2016-02-24T04:07:53.134Z,1009.87
2016-02-24T04:08:53.121Z,1009.87
2016-02-24T04:09:53.108Z,1009.85
2016-02-24T04:10:53.079Z,1009.87
2016-02-24T04:11:53.067Z,1009.86
2016-02-24T04:12:53.053Z,1009.86
2016-02-24T04:13:53.041Z,1009.92
2016-02-24T04:14:53.028Z,1009.86
2016-02-24T04:15:52.999Z,1009.89
2016-02-24T04:16:52.986Z,1009.89
2016-02-24T04:17:52.973Z,1009.89
2016-02-24T04:18:52.944Z,1009.89
2016-02-24T04:19:52.932Z,1009.88
2016-02-24T04:20:52.918Z,1009.87
2016-02-24T04:21:52.906Z,1009.85
2016-02-24T04:22:52.877Z,1009.84
2016-02-24T04:23:52.864Z,1009.83
2016-02-24T04:24:52.852Z,1009.83
2016-02-24T04:25:52.838Z,1009.83
2016-02-24T04:26:52.826Z,1009.83
2016-02-24T04:27:52.797Z,1009.86
2016-02-24T04:28:52.785Z,1009.82
2016-02-24T04:29:52.771Z,1009.86
2016-02-24T04:30:52.773Z,1009.85
2016-02-24T04:31:52.746Z,1009.84
2016-02-24T04:32:52.717Z,1009.85
2016-02-24T04:33:52.704Z,1009.8
2016-02-24T04:34:52.676Z,1009.8
2016-02-24T04:35:52.662Z,1009.78
2016-02-24T04:36:52.648Z,1009.81
2016-02-24T04:37:52.637Z,1009.81
2016-02-24T04:38:52.608Z,1009.81
2016-02-24T04:39:52.595Z,1009.82
2016-02-24T04:40:52.581Z,1009.82
2016-02-24T04:41:52.569Z,1009.86
2016-02-24T04:42:52.556Z,1009.78
2016-02-24T04:43:52.528Z,1009.82
2016-02-24T04:44:52.515Z,1009.82
2016-02-24T04:45:52.502Z,1009.78
2016-02-24T04:46:52.488Z,1009.78
2016-02-24T04:47:52.461Z,1009.75
2016-02-24T04:48:52.447Z,1009.76
2016-02-24T04:49:52.434Z,1009.77
2016-02-24T04:50:52.405Z,1009.74
2016-02-24T04:51:52.408Z,1009.74
2016-02-24T04:52:52.380Z,1009.71
2016-02-24T04:53:52.355Z,1009.7
2016-02-24T04:54:52.343Z,1009.68
2016-02-24T04:55:52.329Z,1009.7
2016-02-24T04:56:52.316Z,1009.67
2016-02-24T04:57:52.288Z,1009.69
2016-02-24T04:58:52.275Z,1009.68
2016-02-24T04:59:52.261Z,1009.69
2016-02-24T05:00:52.249Z,1009.69
2016-02-24T05:01:52.236Z,1009.69
2016-02-24T05:02:52.208Z,1009.71
2016-02-24T05:03:52.194Z,1009.69
2016-02-24T05:04:52.182Z,1009.69
2016-02-24T05:05:52.153Z,1009.68
2016-02-24T05:06:52.140Z,1009.71
2016-02-24T05:07:52.127Z,1009.71
2016-02-24T05:08:52.114Z,1009.72
2016-02-24T05:09:52.085Z,1009.73
2016-02-24T05:10:52.088Z,1009.69
2016-02-24T05:11:52.060Z,1009.71
2016-02-24T05:12:52.047Z,1009.71
2016-02-24T05:13:52.018Z,1009.72
2016-02-24T05:14:52.005Z,1009.73
2016-02-24T05:15:51.993Z,1009.73
2016-02-24T05:16:51.980Z,1009.75
2016-02-24T05:17:51.967Z,1009.72
2016-02-24T05:18:51.938Z,1009.77
2016-02-24T05:19:51.925Z,1009.76
2016-02-24T05:20:51.912Z,1009.76
2016-02-24T05:21:51.883Z,1009.79
2016-02-24T05:22:51.871Z,1009.74
2016-02-24T05:23:51.858Z,1009.78
2016-02-24T05:24:51.845Z,1009.75
2016-02-24T05:25:51.817Z,1009.75
2016-02-24T05:26:51.803Z,1009.75
2016-02-24T05:27:51.790Z,1009.79
2016-02-24T05:28:51.778Z,1009.72
2016-02-24T05:29:51.749Z,1009.72
2016-02-24T05:30:51.736Z,1009.72
2016-02-24T05:31:51.722Z,1009.73
2016-02-24T05:32:51.710Z,1009.72
2016-02-24T05:33:51.681Z,1009.66
2016-02-24T05:34:51.668Z,1009.71
2016-02-24T05:35:51.656Z,1009.7
2016-02-24T05:36:51.643Z,1009.71
2016-02-24T05:37:51.613Z,1009.66
2016-02-24T05:38:51.602Z,1009.67
2016-02-24T05:39:51.588Z,1009.65
2016-02-24T05:40:51.560Z,1009.68
2016-02-24T05:41:51.546Z,1009.69
2016-02-24T05:42:51.534Z,1009.66
2016-02-24T05:43:51.521Z,1009.7
2016-02-24T05:44:51.507Z,1009.72
2016-02-24T05:45:51.496Z,1009.71
2016-02-24T05:46:51.466Z,1009.72
2016-02-24T05:47:51.437Z,1009.72
2016-02-24T05:48:51.425Z,1009.77
2016-02-24T05:49:51.412Z,1009.76
2016-02-24T05:50:51.399Z,1009.73
2016-02-24T05:51:51.370Z,1009.78
2016-02-24T05:52:51.357Z,1009.74
2016-02-24T05:53:51.345Z,1009.75
2016-02-24T05:54:51.332Z,1009.74
2016-02-24T05:55:51.304Z,1009.71
2016-02-24T05:56:51.290Z,1009.71
2016-02-24T05:57:51.278Z,1009.74
2016-02-24T05:58:51.248Z,1009.7
2016-02-24T05:59:51.236Z,1009.7
2016-02-24T06:00:51.222Z,1009.74
2016-02-24T06:01:51.210Z,1009.76
2016-02-24T06:02:51.196Z,1009.73
2016-02-24T06:03:51.169Z,1009.79
2016-02-24T06:04:51.155Z,1009.77
2016-02-24T06:05:51.142Z,1009.78
2016-02-24T06:06:51.114Z,1009.78
2016-02-24T06:07:51.101Z,1009.81
2016-02-24T06:08:51.089Z,1009.75
2016-02-24T06:09:51.061Z,1009.77
2016-02-24T06:10:51.047Z,1009.8
2016-02-24T06:11:51.050Z,1009.79
2016-02-24T06:12:51.022Z,1009.81
2016-02-24T06:13:50.993Z,1009.81
2016-02-24T06:14:50.980Z,1009.8
2016-02-24T06:15:50.967Z,1009.83
2016-02-24T06:16:50.939Z,1009.8
2016-02-24T06:17:50.925Z,1009.84
2016-02-24T06:18:50.913Z,1009.8
2016-02-24T06:19:50.900Z,1009.82
2016-02-24T06:20:50.887Z,1009.84
2016-02-24T06:21:50.858Z,1009.87
2016-02-24T06:22:50.846Z,1009.86
2016-02-24T06:23:50.833Z,1009.82
2016-02-24T06:24:50.819Z,1009.85
2016-02-24T06:25:50.791Z,1009.85
2016-02-24T06:26:50.777Z,1009.89
2016-02-24T06:27:50.765Z,1009.88
2016-02-24T06:28:50.736Z,1009.91
2016-02-24T06:29:50.723Z,1009.87
2016-02-24T06:30:50.710Z,1009.95
2016-02-24T06:31:50.698Z,1009.88
2016-02-24T06:32:50.669Z,1009.92
2016-02-24T06:33:50.656Z,1009.94
2016-02-24T06:34:50.643Z,1009.93
2016-02-24T06:35:50.614Z,1009.93
2016-02-24T06:36:50.602Z,1009.92
2016-02-24T06:37:50.589Z,1009.95
2016-02-24T06:38:50.576Z,1009.93
2016-02-24T06:39:50.547Z,1009.93
2016-02-24T06:40:50.534Z,1009.96
2016-02-24T06:41:50.522Z,1009.93
2016-02-24T06:42:50.492Z,1009.93
2016-02-24T06:43:50.472Z,1009.94
2016-02-24T06:44:50.456Z,1009.96
2016-02-24T06:45:50.447Z,1009.98
2016-02-24T06:46:50.426Z,1009.97
2016-02-24T06:47:50.420Z,1009.97
2016-02-24T06:48:50.391Z,1010.02
2016-02-24T06:49:50.363Z,1010
2016-02-24T06:50:50.366Z,1010.01
2016-02-24T06:51:50.338Z,1010.01
2016-02-24T06:52:50.324Z,1010.06
2016-02-24T06:53:50.296Z,1010.05
2016-02-24T06:54:50.283Z,1010.04
2016-02-24T06:55:50.271Z,1010.04
2016-02-24T06:56:50.241Z,1010.03
2016-02-24T06:57:50.243Z,1010.01
2016-02-24T06:58:50.216Z,1010.06
2016-02-24T06:59:50.202Z,1010.02
2016-02-24T07:00:50.174Z,1010.05
2016-02-24T07:01:50.162Z,1010.04
2016-02-24T07:02:50.149Z,1010.01
2016-02-24T07:03:50.135Z,1010.01
2016-02-24T07:04:50.106Z,1010.05
2016-02-24T07:05:50.094Z,1010.1
2016-02-24T07:06:50.081Z,1010.07
2016-02-24T07:07:50.067Z,1010.09
2016-02-24T07:08:50.040Z,1010.09
2016-02-24T07:09:50.031Z,1010.07
2016-02-24T07:10:50.018Z,1010.08
2016-02-24T07:11:49.990Z,1010.07
2016-02-24T07:12:49.977Z,1010.06
2016-02-24T07:13:49.964Z,1010.09
2016-02-24T07:14:52.138Z,1010.05
2016-02-24T07:15:49.922Z,1010.08
2016-02-24T07:16:49.910Z,1010.12
2016-02-24T07:17:49.896Z,1010.14
2016-02-24T07:18:49.900Z,1010.14
2016-02-24T07:19:49.855Z,1010.13
2016-02-24T07:20:49.841Z,1010.12
2016-02-24T07:21:49.829Z,1010.14
2016-02-24T07:22:49.801Z,1010.14
2016-02-24T07:23:49.788Z,1010.14
2016-02-24T07:24:49.774Z,1010.17
2016-02-24T07:25:49.762Z,1010.15
2016-02-24T07:26:49.733Z,1010.2
2016-02-24T07:27:49.720Z,1010.21
2016-02-24T07:28:49.708Z,1010.22
2016-02-24T07:29:49.679Z,1010.24
2016-02-24T07:30:49.666Z,1010.23
2016-02-24T07:31:49.653Z,1010.25
2016-02-24T07:32:49.640Z,1010.24
2016-02-24T07:33:49.612Z,1010.23
2016-02-24T07:34:49.598Z,1010.22
2016-02-24T07:35:49.586Z,1010.23
2016-02-24T07:36:49.572Z,1010.27
2016-02-24T07:37:49.559Z,1010.2
2016-02-24T07:38:49.547Z,1010.19
2016-02-24T07:39:49.533Z,1010.22
2016-02-24T07:40:49.505Z,1010.23
2016-02-24T07:41:49.477Z,1010.27
2016-02-24T07:42:49.463Z,1010.26
2016-02-24T07:43:49.450Z,1010.3
2016-02-24T07:44:49.438Z,1010.28
2016-02-24T07:45:49.409Z,1010.29
2016-02-24T07:46:49.396Z,1010.3
2016-02-24T07:47:49.383Z,1010.29
2016-02-24T07:48:49.371Z,1010.27
2016-02-24T07:49:49.358Z,1010.3
2016-02-24T07:50:49.329Z,1010.31
2016-02-24T07:51:49.316Z,1010.3
2016-02-24T07:52:49.303Z,1010.34
2016-02-24T07:53:49.291Z,1010.31
2016-02-24T07:54:49.262Z,1010.31
2016-02-24T07:55:49.280Z,1010.29
2016-02-24T07:56:49.236Z,1010.29
2016-02-24T07:57:49.223Z,1010.31
2016-02-24T07:58:49.194Z,1010.28
2016-02-24T07:59:49.182Z,1010.28
2016-02-24T08:00:49.168Z,1010.29
2016-02-24T08:01:49.140Z,1010.26
2016-02-24T08:02:49.126Z,1010.25
2016-02-24T08:03:49.115Z,1010.22
2016-02-24T08:04:49.101Z,1010.24
2016-02-24T08:05:49.087Z,1010.23
2016-02-24T08:06:49.060Z,1010.21
2016-02-24T08:07:49.047Z,1010.25
2016-02-24T08:08:49.018Z,1010.17
2016-02-24T08:09:49.020Z,1010.22
2016-02-24T08:10:48.992Z,1010.23
2016-02-24T08:11:48.979Z,1010.27
2016-02-24T08:12:48.951Z,1010.33
2016-02-24T08:13:48.953Z,1010.28
2016-02-24T08:14:48.925Z,1010.31
2016-02-24T08:15:48.911Z,1010.28
2016-02-24T08:16:48.899Z,1010.28
2016-02-24T08:17:48.869Z,1010.31
2016-02-24T08:18:48.857Z,1010.29
2016-02-24T08:19:48.844Z,1010.27
2016-02-24T08:20:48.832Z,1010.25
2016-02-24T08:21:48.802Z,1010.25
2016-02-24T08:22:48.790Z,1010.23
2016-02-24T08:23:48.777Z,1010.22
2016-02-24T08:24:48.749Z,1010.22
2016-02-24T08:25:48.751Z,1010.19
2016-02-24T08:26:48.723Z,1010.18
2016-02-24T08:27:48.710Z,1010.2
2016-02-24T08:28:48.681Z,1010.17
2016-02-24T08:29:48.669Z,1010.25
2016-02-24T08:30:48.655Z,1010.19
2016-02-24T08:31:48.642Z,1010.21
2016-02-24T08:32:48.614Z,1010.24
2016-02-24T08:33:48.601Z,1010.21
2016-02-24T08:34:48.588Z,1010.18
2016-02-24T08:35:48.575Z,1010.25
2016-02-24T08:36:48.562Z,1010.22
2016-02-24T08:37:48.549Z,1010.23
2016-02-24T08:38:48.520Z,1010.19
2016-02-24T08:39:48.508Z,1010.23
2016-02-24T08:40:48.479Z,1010.18
2016-02-24T08:41:48.466Z,1010.17
2016-02-24T08:42:48.453Z,1010.16
2016-02-24T08:43:48.440Z,1010.18
2016-02-24T08:44:48.411Z,1010.17
2016-02-24T08:45:48.399Z,1010.18
2016-02-24T08:46:48.386Z,1010.16
2016-02-24T08:47:48.373Z,1010.1
2016-02-24T08:48:48.344Z,1010.15
2016-02-24T08:49:48.331Z,1010.16
2016-02-24T08:50:48.319Z,1010.16
2016-02-24T08:51:48.305Z,1010.16
2016-02-24T08:52:48.277Z,1010.2
2016-02-24T08:53:48.264Z,1010.14
2016-02-24T08:54:48.251Z,1010.14
2016-02-24T08:55:48.238Z,1010.14
2016-02-24T08:56:48.210Z,1010.15
2016-02-24T08:57:48.197Z,1010.15
2016-02-24T08:58:48.184Z,1010.12
2016-02-24T08:59:48.171Z,1010.13
2016-02-24T09:00:48.143Z,1010.11
2016-02-24T09:01:48.129Z,1010.06
2016-02-24T09:02:48.116Z,1010.08
2016-02-24T09:03:48.104Z,1010.11
2016-02-24T09:04:48.075Z,1010.14
2016-02-24T09:05:48.062Z,1010.1
2016-02-24T09:06:48.049Z,1010.14
2016-02-24T09:07:48.036Z,1010.14
2016-02-24T09:08:48.023Z,1010.08
2016-02-24T09:09:47.995Z,1010.12
2016-02-24T09:10:47.982Z,1010.1
2016-02-24T09:11:47.969Z,1010.11
2016-02-24T09:12:49.128Z,1010.19
2016-02-24T09:13:49.334Z,1010.06
2016-02-24T09:14:47.914Z,1010.06
2016-02-24T09:15:49.135Z,1009.99
2016-02-24T09:16:48.998Z,1010.04
2016-02-24T09:17:49.219Z,1009.99
2016-02-24T09:18:49.269Z,1009.99
2016-02-24T09:19:49.272Z,1010.34
2016-02-24T09:20:49.196Z,1010.34
2016-02-24T09:21:49.199Z,1010.36
2016-02-24T09:22:49.155Z,1010.34
2016-02-24T09:23:49.204Z,1010.34
2016-02-24T09:24:48.894Z,1010.34
2016-02-24T09:25:47.724Z,1010.33
2016-02-24T09:26:47.713Z,1010.32
2016-02-24T09:27:47.699Z,1010.35
2016-02-24T09:28:47.686Z,1010.34
2016-02-24T09:29:47.658Z,1010.32
2016-02-24T09:30:47.645Z,1010.35
2016-02-24T09:31:47.632Z,1010.35
2016-02-24T09:32:47.619Z,1010.36
2016-02-24T09:33:47.590Z,1010.38
2016-02-24T09:34:47.576Z,1010.37
2016-02-24T09:35:47.564Z,1010.37
2016-02-24T09:36:47.536Z,1010.36
2016-02-24T09:37:47.523Z,1010.39
2016-02-24T09:38:48.729Z,1010.32
2016-02-24T09:39:48.715Z,1010.33
2016-02-24T09:40:47.468Z,1010.33
2016-02-24T09:41:48.986Z,1010.32
2016-02-24T09:42:48.849Z,1010.33
2016-02-24T09:43:49.008Z,1010.04
2016-02-24T09:44:48.791Z,1010.01
2016-02-24T09:45:47.389Z,1009.99
2016-02-24T09:46:47.359Z,1009.97
2016-02-24T09:47:47.347Z,1009.95
2016-02-24T09:48:47.334Z,1009.98
2016-02-24T09:49:47.321Z,1010.01
2016-02-24T09:50:47.292Z,1009.97
2016-02-24T09:51:47.280Z,1009.98
2016-02-24T09:52:47.266Z,1009.95
2016-02-24T09:53:47.238Z,1009.95
2016-02-24T09:54:47.225Z,1009.93
2016-02-24T09:55:47.213Z,1009.95
2016-02-24T09:56:47.183Z,1009.95
2016-02-24T09:57:47.171Z,1009.92
2016-02-24T09:58:47.158Z,1009.9
2016-02-24T09:59:47.129Z,1009.95
2016-02-24T10:00:47.116Z,1009.92
2016-02-24T10:01:47.103Z,1009.88
2016-02-24T10:02:47.090Z,1009.92
2016-02-24T10:03:47.061Z,1009.9
2016-02-24T10:04:47.049Z,1009.9
2016-02-24T10:05:47.035Z,1009.87
2016-02-24T10:06:47.007Z,1009.89
2016-02-24T10:07:46.995Z,1009.88
2016-02-24T10:08:46.981Z,1009.9
2016-02-24T10:09:46.953Z,1009.9
2016-02-24T10:10:46.940Z,1009.87
2016-02-24T10:11:46.926Z,1009.85
2016-02-24T10:12:46.914Z,1009.86
2016-02-24T10:13:46.901Z,1009.82
2016-02-24T10:14:46.873Z,1009.85
2016-02-24T10:15:46.859Z,1009.82
2016-02-24T10:16:46.847Z,1009.81
2016-02-24T10:17:46.818Z,1009.79
2016-02-24T10:18:46.805Z,1009.78
2016-02-24T10:19:46.792Z,1009.77
2016-02-24T10:20:46.764Z,1009.75
2016-02-24T10:21:46.750Z,1009.78
2016-02-24T10:22:46.738Z,1009.75
2016-02-24T10:23:46.725Z,1009.77
2016-02-24T10:24:46.696Z,1009.74
2016-02-24T10:25:46.683Z,1009.75
2016-02-24T10:26:46.671Z,1009.72
2016-02-24T10:27:46.641Z,1009.73
2016-02-24T10:28:46.629Z,1009.72
2016-02-24T10:29:46.616Z,1009.73
2016-02-24T10:30:46.602Z,1009.71
2016-02-24T10:31:46.590Z,1009.7
2016-02-24T10:32:46.562Z,1009.75
2016-02-24T10:33:46.548Z,1009.69
2016-02-24T10:34:46.521Z,1009.68
2016-02-24T10:35:46.507Z,1009.74
2016-02-24T10:36:46.494Z,1009.72
2016-02-24T10:37:46.481Z,1009.71
2016-02-24T10:38:46.453Z,1009.73
2016-02-24T10:39:46.440Z,1009.75
2016-02-24T10:40:46.426Z,1009.72
2016-02-24T10:41:46.414Z,1009.73
2016-02-24T10:42:46.401Z,1009.71
2016-02-24T10:43:46.372Z,1009.67
2016-02-24T10:44:46.360Z,1009.7
2016-02-24T10:45:46.347Z,1009.68
2016-02-24T10:46:46.317Z,1009.69
2016-02-24T10:47:46.320Z,1009.73
2016-02-24T10:48:46.292Z,1009.75
2016-02-24T10:49:46.278Z,1009.72
2016-02-24T10:50:46.250Z,1009.72
2016-02-24T10:51:46.269Z,1009.73
2016-02-24T10:52:46.225Z,1009.68
2016-02-24T10:53:46.212Z,1009.68
2016-02-24T10:54:46.183Z,1009.73
2016-02-24T10:55:46.185Z,1009.74
2016-02-24T10:56:46.158Z,1009.73
2016-02-24T10:57:46.129Z,1009.72
2016-02-24T10:58:46.115Z,1009.72
2016-02-24T10:59:46.103Z,1009.71
2016-02-24T11:00:46.090Z,1009.7
2016-02-24T11:01:46.077Z,1009.65
2016-02-24T11:02:46.049Z,1009.65
2016-02-24T11:03:46.035Z,1009.68
2016-02-24T11:04:46.023Z,1009.66
2016-02-24T11:05:45.994Z,1009.6
2016-02-24T11:06:45.981Z,1009.54
2016-02-24T11:07:45.968Z,1009.5
2016-02-24T11:08:45.954Z,1009.51
2016-02-24T11:09:45.926Z,1009.53
2016-02-24T11:10:45.929Z,1009.46
2016-02-24T11:11:45.901Z,1009.44
2016-02-24T11:12:45.888Z,1009.48
2016-02-24T11:13:45.860Z,1009.45
2016-02-24T11:14:45.846Z,1009.45
2016-02-24T11:15:45.834Z,1009.43
2016-02-24T11:16:45.821Z,1009.42
2016-02-24T11:17:45.808Z,1009.43
2016-02-24T11:18:45.778Z,1009.42
2016-02-24T11:19:45.782Z,1009.41
2016-02-24T11:20:45.753Z,1009.42
2016-02-24T11:21:45.739Z,1009.38
2016-02-24T11:22:45.712Z,1009.38
2016-02-24T11:23:45.699Z,1009.33
2016-02-24T11:24:45.686Z,1009.28
2016-02-24T11:25:45.657Z,1009.29
2016-02-24T11:26:45.644Z,1009.3
2016-02-24T11:27:45.631Z,1009.33
2016-02-24T11:28:45.619Z,1009.28
2016-02-24T11:29:45.621Z,1009.32
2016-02-24T11:30:45.576Z,1009.29
2016-02-24T11:31:45.564Z,1009.29
2016-02-24T11:32:45.551Z,1009.25
2016-02-24T11:33:45.537Z,1009.3
2016-02-24T11:34:45.510Z,1009.27
2016-02-24T11:35:45.496Z,1009.25
2016-02-24T11:36:45.484Z,1009.25
2016-02-24T11:37:45.471Z,1009.22
2016-02-24T11:38:45.442Z,1009.23
2016-02-24T11:39:45.429Z,1009.21
2016-02-24T11:40:45.416Z,1009.18
2016-02-24T11:41:45.403Z,1009.21
2016-02-24T11:42:45.375Z,1009.14
2016-02-24T11:43:45.362Z,1009.08
2016-02-24T11:44:45.348Z,1009.09
2016-02-24T11:45:45.336Z,1009.11
2016-02-24T11:46:45.307Z,1009.04
2016-02-24T11:47:45.294Z,1009.05
2016-02-24T11:48:45.282Z,1009.05
2016-02-24T11:49:45.269Z,1009.04
2016-02-24T11:50:45.239Z,1008.99
2016-02-24T11:51:45.227Z,1008.98
2016-02-24T11:52:45.214Z,1008.97
2016-02-24T11:53:45.201Z,1008.95
2016-02-24T11:54:45.188Z,1008.91
2016-02-24T11:55:45.160Z,1008.89
2016-02-24T11:56:45.146Z,1008.91
2016-02-24T11:57:45.134Z,1008.84
2016-02-24T11:58:45.121Z,1008.82
2016-02-24T11:59:45.091Z,1008.82
2016-02-24T12:00:45.079Z,1008.81
2016-02-24T12:01:45.066Z,1008.81
2016-02-24T12:02:45.038Z,1008.78
2016-02-24T12:03:45.025Z,1008.8
2016-02-24T12:04:45.012Z,1008.81
2016-02-24T12:05:44.985Z,1008.79
2016-02-24T12:06:44.972Z,1008.8
2016-02-24T12:07:44.959Z,1008.8
2016-02-24T12:08:44.947Z,1008.77